sensor_id;sensor_type;location;lat;lon;timestamp;pressure;altitude;pressure_sealevel;temperature;humidity
70217;BME280;65567;55.684;37.570;2023-02-14T00:02:16;97983.53;;;4.62;59.83
70217;BME280;65567;55.684;37.570;2023-02-14T00:04:42;97987.88;;;4.62;59.78
70217;BME280;65567;55.684;37.570;2023-02-14T00:07:12;97983.72;;;4.77;59.41
70217;BME280;65567;55.684;37.570;2023-02-14T00:09:37;97990.75;;;4.75;59.75
70217;BME280;65567;55.684;37.570;2023-02-14T00:12:04;97977.81;;;4.73;59.65
70217;BME280;65567;55.684;37.570;2023-02-14T00:14:30;97995.31;;;4.70;59.38
70217;BME280;65567;55.684;37.570;2023-02-14T00:17:15;97986.91;;;4.65;59.71
70217;BME280;65567;55.684;37.570;2023-02-14T00:19:40;97987.72;;;4.65;59.73
70217;BME280;65567;55.684;37.570;2023-02-14T00:22:06;97988.59;;;4.66;59.79
70217;BME280;65567;55.684;37.570;2023-02-14T00:24:32;97985.31;;;4.79;59.72
70217;BME280;65567;55.684;37.570;2023-02-14T00:26:59;97984.88;;;4.89;59.49
70217;BME280;65567;55.684;37.570;2023-02-14T00:29:27;97994.34;;;4.90;59.31
70217;BME280;65567;55.684;37.570;2023-02-14T00:31:53;97998.84;;;4.86;59.88
70217;BME280;65567;55.684;37.570;2023-02-14T00:34:20;97991.47;;;4.96;59.20
70217;BME280;65567;55.684;37.570;2023-02-14T00:36:46;97989.31;;;4.87;59.53
70217;BME280;65567;55.684;37.570;2023-02-14T00:39:14;98000.13;;;4.77;59.54
70217;BME280;65567;55.684;37.570;2023-02-14T00:41:41;98002.78;;;4.76;59.27
70217;BME280;65567;55.684;37.570;2023-02-14T00:44:08;97987.72;;;4.65;59.90
70217;BME280;65567;55.684;37.570;2023-02-14T00:46:36;97994.44;;;4.69;59.75
70217;BME280;65567;55.684;37.570;2023-02-14T00:49:02;97996.13;;;4.70;59.22
70217;BME280;65567;55.684;37.570;2023-02-14T00:51:29;97987.81;;;4.63;59.74
70217;BME280;65567;55.684;37.570;2023-02-14T00:53:55;97981.53;;;4.50;59.72
70217;BME280;65567;55.684;37.570;2023-02-14T00:56:21;97998.41;;;4.40;59.89
70217;BME280;65567;55.684;37.570;2023-02-14T00:58:47;98005.41;;;4.38;60.10
70217;BME280;65567;55.684;37.570;2023-02-14T01:01:14;98006.47;;;4.34;60.40
70217;BME280;65567;55.684;37.570;2023-02-14T01:03:41;98005.31;;;4.39;60.64
70217;BME280;65567;55.684;37.570;2023-02-14T01:06:07;98002.47;;;4.45;59.83
70217;BME280;65567;55.684;37.570;2023-02-14T01:08:34;98006.19;;;4.40;60.30
70217;BME280;65567;55.684;37.570;2023-02-14T01:11:13;98005.25;;;4.41;60.08
70217;BME280;65567;55.684;37.570;2023-02-14T01:13:39;98010.09;;;4.49;60.14
70217;BME280;65567;55.684;37.570;2023-02-14T01:16:11;98008.00;;;4.57;59.96
70217;BME280;65567;55.684;37.570;2023-02-14T01:18:38;98005.19;;;4.61;60.04
70217;BME280;65567;55.684;37.570;2023-02-14T01:23:45;98007.50;;;4.68;59.62
70217;BME280;65567;55.684;37.570;2023-02-14T01:26:12;98005.88;;;4.65;59.83
70217;BME280;65567;55.684;37.570;2023-02-14T01:28:39;98014.28;;;4.70;60.30
70217;BME280;65567;55.684;37.570;2023-02-14T01:31:19;98022.50;;;4.80;60.08
70217;BME280;65567;55.684;37.570;2023-02-14T01:33:46;98012.25;;;4.77;60.17
70217;BME280;65567;55.684;37.570;2023-02-14T01:38:41;98033.63;;;4.82;60.17
70217;BME280;65567;55.684;37.570;2023-02-14T01:41:07;98040.59;;;4.62;60.64
70217;BME280;65567;55.684;37.570;2023-02-14T01:44:06;98046.56;;;4.65;61.09
70217;BME280;65567;55.684;37.570;2023-02-14T01:46:35;98044.88;;;4.63;61.08
70217;BME280;65567;55.684;37.570;2023-02-14T01:51:36;98044.72;;;4.67;61.19
70217;BME280;65567;55.684;37.570;2023-02-14T01:54:05;98044.38;;;4.74;60.83
70217;BME280;65567;55.684;37.570;2023-02-14T01:56:35;98045.50;;;4.69;61.55
70217;BME280;65567;55.684;37.570;2023-02-14T01:59:05;98040.78;;;4.77;61.29
70217;BME280;65567;55.684;37.570;2023-02-14T02:01:32;98041.00;;;4.72;61.08
70217;BME280;65567;55.684;37.570;2023-02-14T02:04:07;98041.38;;;4.65;60.92
70217;BME280;65567;55.684;37.570;2023-02-14T02:06:38;98050.31;;;4.57;61.10
70217;BME280;65567;55.684;37.570;2023-02-14T02:11:37;98037.78;;;4.48;61.71
70217;BME280;65567;55.684;37.570;2023-02-14T02:14:03;98045.91;;;4.59;62.15
70217;BME280;65567;55.684;37.570;2023-02-14T02:16:45;98047.63;;;4.60;62.30
70217;BME280;65567;55.684;37.570;2023-02-14T02:22:00;98067.13;;;4.49;62.52
70217;BME280;65567;55.684;37.570;2023-02-14T02:52:15;98069.72;;;4.29;62.16
70217;BME280;65567;55.684;37.570;2023-02-14T02:55:10;98063.34;;;4.18;63.03
70217;BME280;65567;55.684;37.570;2023-02-14T02:57:39;98065.38;;;4.30;62.87
70217;BME280;65567;55.684;37.570;2023-02-14T03:00:08;98062.84;;;4.28;62.95
70217;BME280;65567;55.684;37.570;2023-02-14T03:02:51;98057.25;;;4.38;62.63
70217;BME280;65567;55.684;37.570;2023-02-14T03:05:38;98063.97;;;4.42;62.65
70217;BME280;65567;55.684;37.570;2023-02-14T03:08:05;98068.19;;;4.44;62.79
70217;BME280;65567;55.684;37.570;2023-02-14T03:10:35;98061.91;;;4.50;62.53
70217;BME280;65567;55.684;37.570;2023-02-14T03:13:05;98063.78;;;4.46;62.45
70217;BME280;65567;55.684;37.570;2023-02-14T03:15:45;98056.84;;;4.47;62.52
70217;BME280;65567;55.684;37.570;2023-02-14T03:21:33;98067.88;;;4.32;62.96
70217;BME280;65567;55.684;37.570;2023-02-14T03:24:24;98065.66;;;4.43;62.78
70217;BME280;65567;55.684;37.570;2023-02-14T03:27:14;98067.34;;;4.44;62.75
70217;BME280;65567;55.684;37.570;2023-02-14T03:30:06;98065.94;;;4.37;62.68
70217;BME280;65567;55.684;37.570;2023-02-14T03:35:43;98067.44;;;4.42;62.63
70217;BME280;65567;55.684;37.570;2023-02-14T03:38:30;98066.50;;;4.43;62.70
70217;BME280;65567;55.684;37.570;2023-02-14T03:41:06;98071.56;;;4.46;62.55
70217;BME280;65567;55.684;37.570;2023-02-14T03:43:40;98078.38;;;4.49;62.32
70217;BME280;65567;55.684;37.570;2023-02-14T03:46:15;98079.81;;;4.36;62.71
70217;BME280;65567;55.684;37.570;2023-02-14T03:48:43;98086.16;;;4.49;62.13
70217;BME280;65567;55.684;37.570;2023-02-14T03:51:12;98089.50;;;4.51;62.34
70217;BME280;65567;55.684;37.570;2023-02-14T03:53:45;98088.09;;;4.44;62.19
70217;BME280;65567;55.684;37.570;2023-02-14T03:56:33;98084.47;;;4.48;62.43
70217;BME280;65567;55.684;37.570;2023-02-14T03:59:15;98087.53;;;4.56;61.84
70217;BME280;65567;55.684;37.570;2023-02-14T04:01:52;98091.09;;;4.54;62.38
70217;BME280;65567;55.684;37.570;2023-02-14T04:04:24;98086.72;;;4.56;62.02
70217;BME280;65567;55.684;37.570;2023-02-14T04:06:52;98089.09;;;4.60;61.92
70217;BME280;65567;55.684;37.570;2023-02-14T04:09:18;98100.16;;;4.45;61.82
70217;BME280;65567;55.684;37.570;2023-02-14T04:11:45;98092.00;;;4.34;62.34
70217;BME280;65567;55.684;37.570;2023-02-14T04:14:15;98095.66;;;4.29;62.26
70217;BME280;65567;55.684;37.570;2023-02-14T04:16:42;98103.28;;;4.12;62.57
70217;BME280;65567;55.684;37.570;2023-02-14T04:19:27;98106.03;;;3.88;64.36
70217;BME280;65567;55.684;37.570;2023-02-14T04:21:53;98112.88;;;3.89;64.93
70217;BME280;65567;55.684;37.570;2023-02-14T04:24:19;98105.69;;;3.96;65.01
70217;BME280;65567;55.684;37.570;2023-02-14T04:26:45;98109.13;;;3.96;64.84
70217;BME280;65567;55.684;37.570;2023-02-14T04:29:46;98104.06;;;3.93;65.21
70217;BME280;65567;55.684;37.570;2023-02-14T04:32:15;98116.13;;;3.94;64.63
70217;BME280;65567;55.684;37.570;2023-02-14T04:34:42;98119.03;;;3.87;64.68
70217;BME280;65567;55.684;37.570;2023-02-14T04:37:09;98118.78;;;3.93;64.49
70217;BME280;65567;55.684;37.570;2023-02-14T04:39:35;98121.91;;;4.01;64.07
70217;BME280;65567;55.684;37.570;2023-02-14T04:42:02;98133.34;;;4.16;63.52
70217;BME280;65567;55.684;37.570;2023-02-14T04:44:29;98134.47;;;4.10;62.96
70217;BME280;65567;55.684;37.570;2023-02-14T04:46:55;98131.88;;;4.10;63.12
70217;BME280;65567;55.684;37.570;2023-02-14T04:49:21;98137.44;;;4.01;63.38
70217;BME280;65567;55.684;37.570;2023-02-14T04:51:47;98141.78;;;4.01;63.32
70217;BME280;65567;55.684;37.570;2023-02-14T04:54:13;98142.09;;;4.13;62.69
70217;BME280;65567;55.684;37.570;2023-02-14T04:56:39;98144.06;;;4.08;62.19
70217;BME280;65567;55.684;37.570;2023-02-14T04:59:05;98152.09;;;4.02;62.69
70217;BME280;65567;55.684;37.570;2023-02-14T05:01:32;98152.22;;;4.20;62.41
70217;BME280;65567;55.684;37.570;2023-02-14T05:03:58;98151.50;;;4.16;61.99
70217;BME280;65567;55.684;37.570;2023-02-14T05:06:24;98154.94;;;4.17;62.18
70217;BME280;65567;55.684;37.570;2023-02-14T05:08:50;98158.38;;;4.17;62.15
70217;BME280;65567;55.684;37.570;2023-02-14T05:11:16;98163.75;;;4.12;62.01
70217;BME280;65567;55.684;37.570;2023-02-14T05:13:42;98166.78;;;4.22;61.50
70217;BME280;65567;55.684;37.570;2023-02-14T05:16:09;98179.09;;;4.17;61.37
70217;BME280;65567;55.684;37.570;2023-02-14T05:18:35;98171.41;;;4.16;61.40
70217;BME280;65567;55.684;37.570;2023-02-14T05:21:01;98187.28;;;4.28;60.86
70217;BME280;65567;55.684;37.570;2023-02-14T05:23:27;98183.91;;;4.26;60.69
70217;BME280;65567;55.684;37.570;2023-02-14T05:25:53;98199.19;;;4.33;60.97
70217;BME280;65567;55.684;37.570;2023-02-14T05:28:19;98197.66;;;4.28;60.88
70217;BME280;65567;55.684;37.570;2023-02-14T05:30:46;98207.03;;;4.31;60.82
70217;BME280;65567;55.684;37.570;2023-02-14T05:33:12;98201.88;;;4.31;60.67
70217;BME280;65567;55.684;37.570;2023-02-14T05:35:38;98196.53;;;4.34;60.81
70217;BME280;65567;55.684;37.570;2023-02-14T05:38:04;98189.06;;;4.26;60.86
70217;BME280;65567;55.684;37.570;2023-02-14T05:40:30;98203.88;;;4.24;60.79
70217;BME280;65567;55.684;37.570;2023-02-14T05:42:56;98200.88;;;4.34;60.55
70217;BME280;65567;55.684;37.570;2023-02-14T05:45:22;98192.31;;;4.32;60.43
70217;BME280;65567;55.684;37.570;2023-02-14T05:47:48;98200.75;;;4.37;60.16
70217;BME280;65567;55.684;37.570;2023-02-14T05:50:16;98204.28;;;4.36;60.13
70217;BME280;65567;55.684;37.570;2023-02-14T05:52:42;98201.94;;;4.50;59.90
70217;BME280;65567;55.684;37.570;2023-02-14T05:55:09;98199.28;;;4.52;59.61
70217;BME280;65567;55.684;37.570;2023-02-14T05:57:35;98203.22;;;4.60;59.40
70217;BME280;65567;55.684;37.570;2023-02-14T06:00:03;98201.22;;;4.67;59.48
70217;BME280;65567;55.684;37.570;2023-02-14T06:02:31;98201.50;;;4.80;59.07
70217;BME280;65567;55.684;37.570;2023-02-14T06:04:57;98199.34;;;4.90;59.07
70217;BME280;65567;55.684;37.570;2023-02-14T06:07:23;98201.59;;;4.97;58.92
70217;BME280;65567;55.684;37.570;2023-02-14T06:09:49;98187.94;;;5.13;58.67
70217;BME280;65567;55.684;37.570;2023-02-14T06:12:15;98200.44;;;5.05;58.80
70217;BME280;65567;55.684;37.570;2023-02-14T06:14:42;98205.41;;;4.90;59.20
70217;BME280;65567;55.684;37.570;2023-02-14T06:17:11;98203.03;;;5.05;59.03
70217;BME280;65567;55.684;37.570;2023-02-14T06:19:38;98202.19;;;5.23;58.46
70217;BME280;65567;55.684;37.570;2023-02-14T06:22:04;98201.28;;;5.24;58.97
70217;BME280;65567;55.684;37.570;2023-02-14T06:24:30;98199.31;;;5.29;58.48
70217;BME280;65567;55.684;37.570;2023-02-14T06:26:58;98201.81;;;5.31;58.40
70217;BME280;65567;55.684;37.570;2023-02-14T06:29:24;98208.75;;;5.30;58.77
70217;BME280;65567;55.684;37.570;2023-02-14T06:31:50;98207.03;;;5.31;58.71
70217;BME280;65567;55.684;37.570;2023-02-14T06:34:17;98206.75;;;5.18;58.89
70217;BME280;65567;55.684;37.570;2023-02-14T06:36:43;98214.94;;;5.09;59.41
70217;BME280;65567;55.684;37.570;2023-02-14T06:39:09;98211.28;;;5.13;59.16
70217;BME280;65567;55.684;37.570;2023-02-14T06:41:35;98220.13;;;5.09;59.21
70217;BME280;65567;55.684;37.570;2023-02-14T06:44:01;98220.88;;;5.11;59.45
70217;BME280;65567;55.684;37.570;2023-02-14T06:46:27;98221.69;;;5.13;59.65
70217;BME280;65567;55.684;37.570;2023-02-14T06:48:53;98223.16;;;5.19;59.38
70217;BME280;65567;55.684;37.570;2023-02-14T06:51:19;98230.25;;;5.34;59.29
70217;BME280;65567;55.684;37.570;2023-02-14T06:53:45;98227.16;;;5.26;59.59
70217;BME280;65567;55.684;37.570;2023-02-14T06:56:11;98235.50;;;5.33;58.79
70217;BME280;65567;55.684;37.570;2023-02-14T06:58:37;98231.22;;;5.32;59.29
70217;BME280;65567;55.684;37.570;2023-02-14T07:01:03;98232.75;;;5.36;59.90
70217;BME280;65567;55.684;37.570;2023-02-14T07:03:29;98245.19;;;5.48;59.22
70217;BME280;65567;55.684;37.570;2023-02-14T07:05:57;98240.78;;;5.50;59.05
70217;BME280;65567;55.684;37.570;2023-02-14T07:08:26;98254.16;;;5.41;59.35
70217;BME280;65567;55.684;37.570;2023-02-14T07:10:56;98254.50;;;5.33;59.48
70217;BME280;65567;55.684;37.570;2023-02-14T07:13:23;98255.50;;;5.30;59.79
70217;BME280;65567;55.684;37.570;2023-02-14T07:15:49;98262.38;;;5.32;59.61
70217;BME280;65567;55.684;37.570;2023-02-14T07:18:15;98252.84;;;5.32;59.03
70217;BME280;65567;55.684;37.570;2023-02-14T07:20:41;98261.28;;;5.37;59.00
70217;BME280;65567;55.684;37.570;2023-02-14T07:23:10;98257.75;;;5.38;59.13
70217;BME280;65567;55.684;37.570;2023-02-14T07:25:36;98258.47;;;5.42;59.20
70217;BME280;65567;55.684;37.570;2023-02-14T07:28:03;98258.03;;;5.51;58.51
70217;BME280;65567;55.684;37.570;2023-02-14T07:30:29;98266.75;;;5.50;58.46
70217;BME280;65567;55.684;37.570;2023-02-14T07:32:58;98278.38;;;5.60;58.14
70217;BME280;65567;55.684;37.570;2023-02-14T07:35:24;98266.03;;;5.66;57.88
70217;BME280;65567;55.684;37.570;2023-02-14T07:37:51;98278.91;;;5.69;57.55
70217;BME280;65567;55.684;37.570;2023-02-14T07:40:19;98268.50;;;5.69;57.77
70217;BME280;65567;55.684;37.570;2023-02-14T07:42:53;98278.19;;;5.84;57.30
70217;BME280;65567;55.684;37.570;2023-02-14T07:45:20;98276.84;;;5.94;57.43
70217;BME280;65567;55.684;37.570;2023-02-14T07:47:48;98282.09;;;5.93;57.05
70217;BME280;65567;55.684;37.570;2023-02-14T07:50:20;98283.06;;;5.90;57.13
70217;BME280;65567;55.684;37.570;2023-02-14T07:52:46;98294.25;;;5.92;56.82
70217;BME280;65567;55.684;37.570;2023-02-14T07:55:13;98296.16;;;5.89;56.78
70217;BME280;65567;55.684;37.570;2023-02-14T07:57:39;98291.47;;;5.78;57.31
70217;BME280;65567;55.684;37.570;2023-02-14T08:00:06;98290.47;;;5.81;57.04
70217;BME280;65567;55.684;37.570;2023-02-14T08:02:32;98287.53;;;5.88;56.56
70217;BME280;65567;55.684;37.570;2023-02-14T08:04:58;98299.28;;;5.95;56.44
70217;BME280;65567;55.684;37.570;2023-02-14T08:07:24;98299.25;;;5.97;56.24
70217;BME280;65567;55.684;37.570;2023-02-14T08:09:50;98300.16;;;5.96;55.92
70217;BME280;65567;55.684;37.570;2023-02-14T08:12:16;98290.75;;;5.93;55.95
70217;BME280;65567;55.684;37.570;2023-02-14T08:15:05;98304.81;;;5.89;56.98
70217;BME280;65567;55.684;37.570;2023-02-14T08:17:49;98297.22;;;6.04;56.25
70217;BME280;65567;55.684;37.570;2023-02-14T08:20:15;98300.09;;;6.17;55.57
70217;BME280;65567;55.684;37.570;2023-02-14T08:22:41;98300.75;;;6.20;55.57
70217;BME280;65567;55.684;37.570;2023-02-14T08:25:07;98310.81;;;6.28;55.59
70217;BME280;65567;55.684;37.570;2023-02-14T08:27:33;98303.06;;;6.26;55.52
70217;BME280;65567;55.684;37.570;2023-02-14T08:29:59;98313.56;;;6.25;55.71
70217;BME280;65567;55.684;37.570;2023-02-14T08:32:26;98323.44;;;6.36;55.99
70217;BME280;65567;55.684;37.570;2023-02-14T08:34:52;98328.00;;;6.31;56.41
70217;BME280;65567;55.684;37.570;2023-02-14T08:37:18;98322.06;;;6.28;59.49
70217;BME280;65567;55.684;37.570;2023-02-14T08:39:44;98330.66;;;6.11;58.72
70217;BME280;65567;55.684;37.570;2023-02-14T08:42:11;98335.69;;;5.95;58.91
70217;BME280;65567;55.684;37.570;2023-02-14T08:44:37;98336.63;;;5.94;58.75
70217;BME280;65567;55.684;37.570;2023-02-14T08:47:03;98340.34;;;5.89;58.43
70217;BME280;65567;55.684;37.570;2023-02-14T08:49:29;98344.84;;;5.85;58.58
70217;BME280;65567;55.684;37.570;2023-02-14T08:51:56;98354.03;;;5.92;57.56
70217;BME280;65567;55.684;37.570;2023-02-14T08:54:22;98345.25;;;5.95;57.30
70217;BME280;65567;55.684;37.570;2023-02-14T08:56:48;98353.13;;;5.93;57.49
70217;BME280;65567;55.684;37.570;2023-02-14T08:59:13;98352.03;;;5.99;57.06
70217;BME280;65567;55.684;37.570;2023-02-14T09:01:39;98367.03;;;5.92;56.57
70217;BME280;65567;55.684;37.570;2023-02-14T09:04:06;98365.56;;;5.87;57.28
70217;BME280;65567;55.684;37.570;2023-02-14T09:06:32;98368.81;;;5.92;57.12
70217;BME280;65567;55.684;37.570;2023-02-14T09:08:58;98375.25;;;5.83;57.01
70217;BME280;65567;55.684;37.570;2023-02-14T09:11:24;98373.72;;;5.79;56.82
70217;BME280;65567;55.684;37.570;2023-02-14T09:13:51;98387.41;;;5.83;56.83
70217;BME280;65567;55.684;37.570;2023-02-14T09:16:19;98382.91;;;5.67;56.61
70217;BME280;65567;55.684;37.570;2023-02-14T09:18:46;98385.75;;;5.61;56.60
70217;BME280;65567;55.684;37.570;2023-02-14T09:21:18;98384.72;;;5.65;56.13
70217;BME280;65567;55.684;37.570;2023-02-14T09:23:45;98389.06;;;5.65;56.07
70217;BME280;65567;55.684;37.570;2023-02-14T09:26:12;98387.25;;;5.67;56.38
70217;BME280;65567;55.684;37.570;2023-02-14T09:28:39;98400.34;;;5.84;55.48
70217;BME280;65567;55.684;37.570;2023-02-14T09:31:20;98396.03;;;6.04;55.29
70217;BME280;65567;55.684;37.570;2023-02-14T09:33:47;98409.09;;;6.02;54.94
70217;BME280;65567;55.684;37.570;2023-02-14T09:36:14;98396.13;;;6.01;54.58
70217;BME280;65567;55.684;37.570;2023-02-14T09:38:40;98408.03;;;6.06;54.32
70217;BME280;65567;55.684;37.570;2023-02-14T09:41:09;98409.50;;;6.12;53.73
70217;BME280;65567;55.684;37.570;2023-02-14T09:44:01;98413.72;;;6.15;53.81
70217;BME280;65567;55.684;37.570;2023-02-14T09:46:30;98410.84;;;6.02;53.52
70217;BME280;65567;55.684;37.570;2023-02-14T09:49:04;98408.13;;;6.05;54.11
70217;BME280;65567;55.684;37.570;2023-02-14T09:51:36;98415.53;;;6.32;53.18
70217;BME280;65567;55.684;37.570;2023-02-14T09:54:11;98427.63;;;6.33;52.72
70217;BME280;65567;55.684;37.570;2023-02-14T09:59:34;98440.72;;;6.31;52.65
70217;BME280;65567;55.684;37.570;2023-02-14T10:08:09;98446.00;;;6.30;53.53
70217;BME280;65567;55.684;37.570;2023-02-14T10:10:46;98451.53;;;6.41;52.83
70217;BME280;65567;55.684;37.570;2023-02-14T10:13:32;98451.53;;;6.41;53.18
70217;BME280;65567;55.684;37.570;2023-02-14T10:22:02;98465.97;;;6.66;52.01
70217;BME280;65567;55.684;37.570;2023-02-14T10:24:42;98470.38;;;6.46;51.41
70217;BME280;65567;55.684;37.570;2023-02-14T10:29:51;98479.03;;;6.27;51.40
70217;BME280;65567;55.684;37.570;2023-02-14T10:32:24;98493.97;;;6.22;51.40
70217;BME280;65567;55.684;37.570;2023-02-14T10:34:55;98489.47;;;6.07;51.88
70217;BME280;65567;55.684;37.570;2023-02-14T10:37:35;98500.00;;;6.04;51.60
70217;BME280;65567;55.684;37.570;2023-02-14T10:43:22;98501.06;;;6.00;51.39
70217;BME280;65567;55.684;37.570;2023-02-14T10:46:33;98503.25;;;6.09;50.32
70217;BME280;65567;55.684;37.570;2023-02-14T10:49:07;98497.91;;;5.91;50.99
70217;BME280;65567;55.684;37.570;2023-02-14T10:54:31;98506.75;;;6.08;50.70
70217;BME280;65567;55.684;37.570;2023-02-14T10:57:31;98514.00;;;6.20;50.70
70217;BME280;65567;55.684;37.570;2023-02-14T11:00:04;98510.88;;;6.33;50.29
70217;BME280;65567;55.684;37.570;2023-02-14T11:02:43;98520.72;;;6.45;50.05
70217;BME280;65567;55.684;37.570;2023-02-14T11:05:35;98516.28;;;6.47;50.25
70217;BME280;65567;55.684;37.570;2023-02-14T11:08:21;98526.31;;;6.36;50.12
70217;BME280;65567;55.684;37.570;2023-02-14T11:10:49;98520.72;;;6.26;49.77
70217;BME280;65567;55.684;37.570;2023-02-14T11:13:36;98518.59;;;6.15;50.03
70217;BME280;65567;55.684;37.570;2023-02-14T11:16:08;98528.38;;;5.88;50.34
70217;BME280;65567;55.684;37.570;2023-02-14T11:18:37;98542.50;;;5.82;50.55
70217;BME280;65567;55.684;37.570;2023-02-14T11:21:10;98538.78;;;5.88;49.83
70217;BME280;65567;55.684;37.570;2023-02-14T11:23:43;98548.59;;;5.81;50.26
70217;BME280;65567;55.684;37.570;2023-02-14T11:26:24;98541.72;;;5.80;50.08
70217;BME280;65567;55.684;37.570;2023-02-14T11:31:46;98548.56;;;5.83;50.27
70217;BME280;65567;55.684;37.570;2023-02-14T11:37:02;98577.84;;;5.43;50.60
70217;BME280;65567;55.684;37.570;2023-02-14T11:42:00;98569.09;;;5.46;50.58
70217;BME280;65567;55.684;37.570;2023-02-14T11:44:30;98554.75;;;5.37;50.22
70217;BME280;65567;55.684;37.570;2023-02-14T11:49:59;98571.84;;;5.21;49.77
70217;BME280;65567;55.684;37.570;2023-02-14T11:52:26;98567.09;;;5.30;50.00
70217;BME280;65567;55.684;37.570;2023-02-14T11:54:55;98575.22;;;5.45;49.71
70217;BME280;65567;55.684;37.570;2023-02-14T11:59:55;98576.16;;;5.65;49.61
70217;BME280;65567;55.684;37.570;2023-02-14T12:02:43;98577.25;;;5.79;49.77
70217;BME280;65567;55.684;37.570;2023-02-14T12:07:49;98585.28;;;5.73;49.29
70217;BME280;65567;55.684;37.570;2023-02-14T12:10:26;98601.44;;;5.82;48.83
70217;BME280;65567;55.684;37.570;2023-02-14T12:15:38;98603.41;;;5.54;49.45
70217;BME280;65567;55.684;37.570;2023-02-14T12:21:48;98617.81;;;5.61;49.34
70217;BME280;65567;55.684;37.570;2023-02-14T12:32:27;98623.91;;;5.40;49.71
70217;BME280;65567;55.684;37.570;2023-02-14T12:35:02;98627.81;;;5.50;49.76
70217;BME280;65567;55.684;37.570;2023-02-14T12:43:43;98652.63;;;5.79;49.54
70217;BME280;65567;55.684;37.570;2023-02-14T12:51:22;98662.84;;;5.40;49.73
70217;BME280;65567;55.684;37.570;2023-02-14T12:54:07;98676.84;;;5.36;49.65
70217;BME280;65567;55.684;37.570;2023-02-14T13:18:40;98709.53;;;4.70;50.77
70217;BME280;65567;55.684;37.570;2023-02-14T13:21:13;98722.69;;;4.66;50.60
70217;BME280;65567;55.684;37.570;2023-02-14T13:23:45;98722.00;;;4.60;50.52
70217;BME280;65567;55.684;37.570;2023-02-14T13:26:19;98727.63;;;4.72;50.68
70217;BME280;65567;55.684;37.570;2023-02-14T13:29:12;98719.50;;;4.81;50.39
70217;BME280;65567;55.684;37.570;2023-02-14T13:31:37;98732.72;;;4.75;50.40
70217;BME280;65567;55.684;37.570;2023-02-14T13:34:20;98727.63;;;4.72;50.93
70217;BME280;65567;55.684;37.570;2023-02-14T13:36:54;98739.75;;;4.71;50.95
70217;BME280;65567;55.684;37.570;2023-02-14T13:48:17;98776.19;;;4.68;51.73
70217;BME280;65567;55.684;37.570;2023-02-14T13:51:23;98772.25;;;4.56;52.10
70217;BME280;65567;55.684;37.570;2023-02-14T13:53:45;98785.72;;;4.68;51.72
70217;BME280;65567;55.684;37.570;2023-02-14T13:59:00;98786.09;;;4.82;51.79
70217;BME280;65567;55.684;37.570;2023-02-14T14:01:36;98784.13;;;4.63;51.50
70217;BME280;65567;55.684;37.570;2023-02-14T14:04:05;98787.63;;;4.62;51.43
70217;BME280;65567;55.684;37.570;2023-02-14T14:20:28;98824.34;;;4.50;52.52
70217;BME280;65567;55.684;37.570;2023-02-14T14:22:54;98829.72;;;4.44;52.17
70217;BME280;65567;55.684;37.570;2023-02-14T14:25:32;98835.56;;;4.51;52.34
70217;BME280;65567;55.684;37.570;2023-02-14T14:28:16;98840.44;;;4.60;52.38
70217;BME280;65567;55.684;37.570;2023-02-14T14:30:43;98845.75;;;4.57;52.32
70217;BME280;65567;55.684;37.570;2023-02-14T14:35:39;98855.13;;;4.61;52.51
70217;BME280;65567;55.684;37.570;2023-02-14T14:38:05;98858.78;;;4.55;52.53
70217;BME280;65567;55.684;37.570;2023-02-14T14:40:33;98851.97;;;4.51;52.45
70217;BME280;65567;55.684;37.570;2023-02-14T14:43:13;98867.53;;;4.51;52.68
70217;BME280;65567;55.684;37.570;2023-02-14T14:45:45;98859.72;;;4.53;52.70
70217;BME280;65567;55.684;37.570;2023-02-14T14:48:17;98864.97;;;4.50;53.35
70217;BME280;65567;55.684;37.570;2023-02-14T14:50:47;98867.88;;;4.40;52.53
70217;BME280;65567;55.684;37.570;2023-02-14T14:56:05;98875.00;;;4.34;53.51
70217;BME280;65567;55.684;37.570;2023-02-14T14:58:40;98872.94;;;4.17;53.47
70217;BME280;65567;55.684;37.570;2023-02-14T15:01:10;98866.69;;;4.22;53.37
70217;BME280;65567;55.684;37.570;2023-02-14T15:03:46;98880.38;;;4.27;53.37
70217;BME280;65567;55.684;37.570;2023-02-14T15:06:19;98883.13;;;4.21;53.16
70217;BME280;65567;55.684;37.570;2023-02-14T15:08:46;98882.72;;;4.07;53.54
70217;BME280;65567;55.684;37.570;2023-02-14T15:11:20;98882.41;;;4.18;53.84
70217;BME280;65567;55.684;37.570;2023-02-14T15:14:12;98891.31;;;4.09;53.87
70217;BME280;65567;55.684;37.570;2023-02-14T15:16:48;98898.13;;;4.11;54.18
70217;BME280;65567;55.684;37.570;2023-02-14T15:21:45;98913.34;;;4.22;54.33
70217;BME280;65567;55.684;37.570;2023-02-14T15:24:16;98917.16;;;4.10;54.61
70217;BME280;65567;55.684;37.570;2023-02-14T15:26:45;98919.88;;;4.07;54.63
70217;BME280;65567;55.684;37.570;2023-02-14T15:29:38;98923.72;;;3.92;55.13
70217;BME280;65567;55.684;37.570;2023-02-14T15:32:05;98918.88;;;3.82;55.06
70217;BME280;65567;55.684;37.570;2023-02-14T15:34:34;98934.41;;;3.82;55.71
70217;BME280;65567;55.684;37.570;2023-02-14T15:37:01;98930.00;;;3.85;55.65
70217;BME280;65567;55.684;37.570;2023-02-14T15:39:36;98939.31;;;3.91;55.58
70217;BME280;65567;55.684;37.570;2023-02-14T15:42:04;98931.16;;;4.05;55.53
70217;BME280;65567;55.684;37.570;2023-02-14T15:44:31;98945.06;;;4.02;55.81
70217;BME280;65567;55.684;37.570;2023-02-14T15:47:01;98948.50;;;4.03;55.87
70217;BME280;65567;55.684;37.570;2023-02-14T15:49:35;98945.28;;;3.94;55.92
70217;BME280;65567;55.684;37.570;2023-02-14T15:52:05;98962.06;;;3.48;55.97
70217;BME280;65567;55.684;37.570;2023-02-14T15:54:44;98953.66;;;3.40;57.29
70217;BME280;65567;55.684;37.570;2023-02-14T15:57:20;98967.78;;;3.61;57.05
70217;BME280;65567;55.684;37.570;2023-02-14T15:59:48;98978.75;;;3.71;57.47
70217;BME280;65567;55.684;37.570;2023-02-14T16:04:46;98981.16;;;3.77;57.99
70217;BME280;65567;55.684;37.570;2023-02-14T16:07:23;98981.63;;;3.91;57.76
70217;BME280;65567;55.684;37.570;2023-02-14T16:10:13;98996.75;;;4.07;57.58